Time;durP1;ratioP1;P1;durP2;ratioP2;P2;SDS_P1;SDS_P2;PMS_P1;PMS_P2;Temp;Humidity;BMP_temperature;BMP_pressure;BME280_temperature;BME280_humidity;BME280_pressure;Samples;Min_cycle;Max_cycle;Signal;HPM_P1;HPM_P2
2023/06/06 00:02:02;;;;;;;;;13.50;11.75;;;;;18.61;53.07;101072.09;5074990;28;45754;-82
2023/06/06 00:04:29;;;;;;;;;11.75;9.00;;;;;18.48;53.03;101064.44;5074924;28;46844;-82
2023/06/06 00:06:56;;;;;;;;;11.25;10.00;;;;;18.43;53.83;101064.06;5056540;28;47017;-83
2023/06/06 00:09:22;;;;;;;;;14.75;12.25;;;;;18.36;53.13;101073.56;5076068;28;45489;-82
2023/06/06 00:11:48;;;;;;;;;10.00;8.50;;;;;18.28;53.62;101063.72;5056860;28;45430;-81
2023/06/06 00:17:36;;;;;;;;;12.00;11.00;;;;;18.22;53.19;101069.59;5072577;28;45927;-83
2023/06/06 00:20:08;;;;;;;;;12.00;10.50;;;;;18.19;53.56;101063.78;5074912;28;45614;-83
2023/06/06 00:22:36;;;;;;;;;13.50;12.75;;;;;18.16;53.71;101062.25;5074511;28;45921;-83
2023/06/06 00:25:03;;;;;;;;;10.00;10.00;;;;;18.17;53.49;101063.06;5074732;28;45614;-83
2023/06/06 00:27:29;;;;;;;;;13.25;10.75;;;;;18.17;53.76;101068.38;5074950;28;46022;-83
2023/06/06 00:29:54;;;;;;;;;10.25;8.50;;;;;18.13;53.50;101062.53;5056230;28;45702;-82
2023/06/06 00:32:20;;;;;;;;;10.75;9.00;;;;;18.15;53.89;101059.72;5074821;28;45545;-83
2023/06/06 00:34:45;;;;;;;;;10.50;8.75;;;;;18.13;54.10;101065.19;5074609;28;46287;-82
2023/06/06 00:37:11;;;;;;;;;10.25;8.50;;;;;18.10;53.41;101072.59;5074609;28;45750;-82
2023/06/06 00:39:36;;;;;;;;;12.25;10.00;;;;;18.09;54.29;101062.94;5056007;28;45716;-82
2023/06/06 00:42:01;;;;;;;;;9.25;8.00;;;;;18.02;54.15;101065.38;5074555;28;45831;-83
2023/06/06 00:47:49;;;;;;;;;13.50;10.25;;;;;18.00;53.62;101059.38;5074236;28;45648;-82
2023/06/06 00:50:15;;;;;;;;;14.25;14.00;;;;;17.99;54.19;101063.00;5074561;28;45719;-82
2023/06/06 00:52:45;;;;;;;;;9.00;8.00;;;;;17.95;54.53;101056.31;5075453;28;45732;-82
2023/06/06 00:55:11;;;;;;;;;12.50;11.00;;;;;17.89;54.59;101060.41;5068797;28;47486;-81
2023/06/06 00:57:37;;;;;;;;;13.75;12.00;;;;;17.80;54.76;101058.63;5095450;28;45351;-81
2023/06/06 01:00:06;;;;;;;;;16.50;13.00;;;;;17.73;54.81;101054.88;5093213;28;45396;-82
2023/06/06 01:02:37;;;;;;;;;12.50;11.50;;;;;17.65;54.96;101044.16;5070792;28;45662;-83
2023/06/06 01:05:09;;;;;;;;;11.00;11.00;;;;;17.62;55.16;101047.09;5062962;28;46643;-83
2023/06/06 01:07:37;;;;;;;;;9.75;9.50;;;;;17.56;55.41;101037.88;5076677;28;46395;-82
2023/06/06 01:10:05;;;;;;;;;10.25;10.00;;;;;17.51;55.40;101042.75;5057223;28;45819;-82
2023/06/06 01:12:33;;;;;;;;;10.25;8.25;;;;;17.48;55.78;101045.72;5055941;28;45989;-82
2023/06/06 01:15:11;;;;;;;;;12.50;11.00;;;;;17.45;55.45;101039.84;5074192;28;46447;-82
2023/06/06 01:17:41;;;;;;;;;14.50;9.75;;;;;17.42;55.12;101045.44;5074181;28;46016;-83
2023/06/06 01:20:09;;;;;;;;;13.75;10.00;;;;;17.39;55.64;101040.41;5056681;28;45769;-83
2023/06/06 01:22:36;;;;;;;;;10.25;9.00;;;;;17.33;55.58;101039.16;5057280;28;45622;-81
2023/06/06 01:25:03;;;;;;;;;12.25;10.75;;;;;17.30;55.83;101030.66;5074340;28;45612;-82
2023/06/06 01:27:33;;;;;;;;;11.75;9.25;;;;;17.31;55.55;101037.63;5074027;28;46660;-83
2023/06/06 01:30:02;;;;;;;;;13.25;10.75;;;;;17.25;55.55;101033.75;5077221;28;45658;-82
2023/06/06 01:32:35;;;;;;;;;12.75;10.00;;;;;17.25;55.69;101035.56;5077493;28;45500;-83
2023/06/06 01:35:25;;;;;;;;;15.75;10.75;;;;;17.28;56.44;101040.56;5077545;28;46600;-82
2023/06/06 01:38:08;;;;;;;;;13.00;11.75;;;;;17.17;56.39;101031.78;5077817;28;46339;-82
2023/06/06 01:40:35;;;;;;;;;13.00;11.50;;;;;17.09;56.50;101029.03;5077612;28;45621;-82
2023/06/06 01:43:03;;;;;;;;;9.50;9.00;;;;;17.04;56.18;101031.25;5077201;28;45631;-82
2023/06/06 01:45:31;;;;;;;;;18.00;15.00;;;;;17.00;56.38;101023.75;5059118;28;48795;-84
2023/06/06 01:47:59;;;;;;;;;13.00;9.75;;;;;17.03;56.52;101026.09;5077332;28;46050;-83
2023/06/06 01:50:25;;;;;;;;;15.75;13.50;;;;;16.97;56.68;101035.44;5077492;28;45656;-83
2023/06/06 01:52:54;;;;;;;;;14.50;13.25;;;;;16.96;57.29;101035.56;5077699;28;45559;-83
2023/06/06 01:55:20;;;;;;;;;16.00;13.25;;;;;16.92;56.36;101028.88;5080299;28;45839;-84
2023/06/06 01:57:46;;;;;;;;;13.75;11.00;;;;;16.92;56.77;101026.25;5082892;28;46109;-85
2023/06/06 02:00:12;;;;;;;;;12.25;11.25;;;;;16.84;57.49;101026.13;5082076;28;45792;-83
2023/06/06 02:02:37;;;;;;;;;12.25;11.50;;;;;16.81;56.98;101032.50;5083261;28;45550;-84
2023/06/06 02:05:03;;;;;;;;;13.00;13.00;;;;;16.73;57.61;101035.03;5081771;28;46930;-83
2023/06/06 02:07:30;;;;;;;;;10.75;9.00;;;;;16.63;57.63;101040.28;5082697;28;46106;-83
2023/06/06 02:09:56;;;;;;;;;14.75;12.00;;;;;16.58;57.15;101039.81;5080378;28;45651;-84
2023/06/06 02:12:21;;;;;;;;;13.00;10.75;;;;;16.52;58.22;101027.13;5076967;28;45825;-83
2023/06/06 02:18:08;;;;;;;;;13.25;12.00;;;;;16.35;58.95;101035.75;5075411;28;45688;-84
2023/06/06 02:20:34;;;;;;;;;14.00;11.00;;;;;16.25;58.49;101037.53;5058163;28;45661;-83
2023/06/06 02:23:00;;;;;;;;;13.00;11.25;;;;;16.21;58.95;101028.19;5076824;28;45760;-83
2023/06/06 02:25:26;;;;;;;;;12.00;10.25;;;;;16.13;59.19;101038.63;5076696;28;45733;-82
2023/06/06 02:27:53;;;;;;;;;14.00;13.00;;;;;16.08;59.14;101032.91;5076670;28;46158;-83
2023/06/06 02:30:19;;;;;;;;;12.50;11.00;;;;;16.02;59.06;101036.06;5076776;28;45511;-82
2023/06/06 02:32:45;;;;;;;;;14.50;12.00;;;;;15.97;59.32;101036.47;5076751;28;45729;-83
2023/06/06 02:35:11;;;;;;;;;12.25;11.50;;;;;15.97;59.69;101040.91;5076409;28;45910;-83
2023/06/06 02:37:36;;;;;;;;;14.75;12.00;;;;;15.92;59.83;101031.56;5058439;28;46521;-84
2023/06/06 02:40:08;;;;;;;;;13.00;12.00;;;;;15.86;59.32;101028.63;5075665;28;45602;-83
2023/06/06 02:42:35;;;;;;;;;14.75;11.75;;;;;15.84;59.59;101023.47;5058695;28;45889;-83
2023/06/06 02:48:23;;;;;;;;;14.50;10.00;;;;;15.82;60.17;101038.63;5081676;28;46075;-83
2023/06/06 02:50:48;;;;;;;;;11.75;11.00;;;;;15.78;60.06;101029.28;5063981;28;45574;-83
2023/06/06 02:53:15;;;;;;;;;13.25;12.00;;;;;15.76;59.87;101033.84;5082352;28;45506;-83
2023/06/06 02:55:40;;;;;;;;;18.75;14.00;;;;;15.76;59.63;101017.19;5080474;28;46232;-85
2023/06/06 02:58:29;;;;;;;;;12.50;8.50;;;;;15.76;60.05;101027.75;5076904;28;45893;-83
2023/06/06 03:00:56;;;;;;;;;15.50;13.50;;;;;15.67;60.05;101021.44;5076467;28;45622;-85
2023/06/06 03:03:23;;;;;;;;;14.00;12.00;;;;;15.66;60.26;101011.84;5076476;28;45597;-83
2023/06/06 03:05:51;;;;;;;;;12.50;11.25;;;;;15.62;60.77;101025.44;5076524;28;46607;-82
2023/06/06 03:08:20;;;;;;;;;17.00;13.25;;;;;15.54;60.77;101026.13;5058489;28;46401;-84
2023/06/06 03:10:49;;;;;;;;;14.00;11.75;;;;;15.52;60.66;101020.13;5077441;28;45763;-84
2023/06/06 03:13:16;;;;;;;;;18.50;11.50;;;;;15.49;60.77;101028.28;5081690;28;45500;-83
2023/06/06 03:15:42;;;;;;;;;14.50;13.50;;;;;15.49;60.57;101029.09;5093733;28;45792;-85
2023/06/06 03:18:11;;;;;;;;;15.25;12.00;;;;;15.45;60.62;101022.41;5100727;27;45440;-83
2023/06/06 03:20:41;;;;;;;;;13.25;12.75;;;;;15.49;60.89;101033.56;5098801;28;45238;-83
2023/06/06 03:23:08;;;;;;;;;19.75;13.25;;;;;15.42;60.50;101014.75;5091179;28;45444;-84
2023/06/06 03:25:33;;;;;;;;;15.00;12.25;;;;;15.42;61.03;101020.03;5082466;28;45778;-86
2023/06/06 03:28:00;;;;;;;;;21.50;13.75;;;;;15.47;61.46;101019.66;5077574;28;45618;-84
2023/06/06 03:33:47;;;;;;;;;17.00;13.50;;;;;15.41;61.34;101012.25;5076130;28;45508;-83
2023/06/06 03:36:13;;;;;;;;;17.25;14.00;;;;;15.37;61.60;101013.47;5058047;28;48277;-83
2023/06/06 03:38:38;;;;;;;;;15.00;13.25;;;;;15.35;61.34;101021.50;5057357;28;48021;-82
2023/06/06 03:41:04;;;;;;;;;17.50;13.25;;;;;15.32;61.52;101013.88;5075751;28;45633;-84
2023/06/06 03:43:30;;;;;;;;;19.75;14.75;;;;;15.30;61.47;101021.06;5075807;28;45494;-84
2023/06/06 03:45:55;;;;;;;;;13.75;12.25;;;;;15.26;61.14;101027.56;5056884;28;46744;-83
2023/06/06 03:48:21;;;;;;;;;17.25;13.25;;;;;15.27;61.57;101023.97;5075430;28;45648;-84
2023/06/06 03:50:46;;;;;;;;;17.75;13.00;;;;;15.28;61.87;101030.06;5075309;28;46144;-82
2023/06/06 03:53:11;;;;;;;;;19.50;17.75;;;;;15.27;61.49;101031.91;5056974;28;45574;-83
2023/06/06 03:55:37;;;;;;;;;13.75;12.50;;;;;15.28;61.38;101030.91;5075203;28;45644;-83
2023/06/06 03:58:03;;;;;;;;;17.25;15.75;;;;;15.31;61.61;101027.19;5075269;28;46550;-83
2023/06/06 04:03:50;;;;;;;;;16.25;14.00;;;;;15.24;61.81;101018.94;5075307;28;45680;-83
2023/06/06 04:06:15;;;;;;;;;18.00;13.75;;;;;15.26;61.48;101035.50;5075630;28;46764;-83
2023/06/06 04:08:41;;;;;;;;;18.50;15.00;;;;;15.23;61.60;101032.25;5075251;28;45690;-83
2023/06/06 04:11:06;;;;;;;;;19.50;17.25;;;;;15.21;61.68;101034.22;5056860;28;46099;-83
2023/06/06 04:13:31;;;;;;;;;16.75;14.25;;;;;15.17;61.90;101038.06;5075220;28;45831;-83
2023/06/06 04:19:19;;;;;;;;;19.50;15.25;;;;;15.16;61.56;101037.22;5073387;28;46252;-83
2023/06/06 04:21:45;;;;;;;;;22.75;17.75;;;;;15.12;61.81;101035.78;5057088;28;45594;-84
2023/06/06 04:24:11;;;;;;;;;23.50;17.00;;;;;15.11;61.94;101040.22;5075561;28;45859;-83
2023/06/06 04:26:36;;;;;;;;;25.75;17.75;;;;;15.10;62.08;101028.03;5058308;28;48245;-84
2023/06/06 04:29:02;;;;;;;;;17.25;16.50;;;;;15.11;61.80;101028.88;5077505;28;45787;-84
2023/06/06 04:31:29;;;;;;;;;19.25;17.50;;;;;15.16;62.16;101037.22;5075356;28;45762;-83
2023/06/06 04:33:55;;;;;;;;;19.25;17.75;;;;;15.12;62.35;101031.34;5056094;28;45823;-83
2023/06/06 04:36:23;;;;;;;;;20.50;17.75;;;;;15.15;62.70;101032.06;5075803;28;45597;-83
2023/06/06 04:38:49;;;;;;;;;20.00;18.00;;;;;15.14;62.43;101028.59;5074649;28;46225;-83
2023/06/06 04:41:16;;;;;;;;;22.25;16.25;;;;;15.12;62.34;101028.72;5074866;28;45633;-83
2023/06/06 04:43:49;;;;;;;;;19.75;18.75;;;;;15.13;62.47;101029.56;5074582;28;45647;-82
2023/06/06 04:49:35;;;;;;;;;20.25;17.50;;;;;15.08;62.54;101037.03;5080231;28;45742;-83
2023/06/06 04:52:03;;;;;;;;;19.75;18.75;;;;;15.06;62.79;101034.50;5059862;28;46060;-83
2023/06/06 04:54:30;;;;;;;;;27.50;22.25;;;;;15.06;62.64;101038.97;5078057;28;45631;-85
2023/06/06 04:56:56;;;;;;;;;24.75;19.75;;;;;15.06;62.72;101025.78;5078813;28;45691;-82
2023/06/06 04:59:22;;;;;;;;;27.00;22.00;;;;;15.08;62.85;101029.94;5059542;28;46187;-83
2023/06/06 05:01:48;;;;;;;;;21.25;20.00;;;;;15.06;62.94;101029.22;5059866;28;45750;-84
2023/06/06 05:04:15;;;;;;;;;27.25;22.75;;;;;15.06;63.12;101038.97;5078056;28;45502;-82
2023/06/06 05:06:40;;;;;;;;;28.25;26.00;;;;;15.09;63.05;101041.34;5078131;28;46181;-83
2023/06/06 05:09:07;;;;;;;;;23.25;20.00;;;;;15.07;63.18;101036.19;5078861;28;45592;-81
2023/06/06 05:11:33;;;;;;;;;27.25;23.00;;;;;15.06;62.93;101033.69;5075880;28;45624;-82
2023/06/06 05:14:00;;;;;;;;;29.75;23.75;;;;;15.05;63.24;101038.13;5074442;28;45617;-82
2023/06/06 05:19:48;;;;;;;;;25.00;24.50;;;;;15.08;63.24;101039.66;5073537;28;45760;-77
2023/06/06 05:22:14;;;;;;;;;22.00;20.25;;;;;15.11;63.12;101040.22;5073335;28;45604;-81
2023/06/06 05:24:41;;;;;;;;;28.25;25.00;;;;;15.14;63.21;101028.59;5073956;28;45535;-80
2023/06/06 05:27:06;;;;;;;;;21.50;19.50;;;;;15.16;63.24;101034.59;5073825;28;46922;-78
2023/06/06 05:29:31;;;;;;;;;27.00;24.50;;;;;15.17;63.14;101036.25;5073653;28;46108;-80
2023/06/06 05:31:57;;;;;;;;;27.25;24.25;;;;;15.16;62.74;101031.97;5074774;28;45588;-81
2023/06/06 05:34:22;;;;;;;;;27.00;24.00;;;;;15.22;63.10;101034.09;5081286;28;45632;-78
2023/06/06 05:36:48;;;;;;;;;35.25;28.75;;;;;15.25;63.04;101048.81;5087836;28;45516;-79
2023/06/06 05:39:14;;;;;;;;;28.75;27.25;;;;;15.20;63.00;101045.72;5088843;28;45641;-79
2023/06/06 05:41:39;;;;;;;;;31.75;28.00;;;;;15.23;63.11;101038.38;5066577;28;45508;-79
2023/06/06 05:44:05;;;;;;;;;35.25;30.75;;;;;15.21;63.26;101031.56;5080410;28;45482;-78
2023/06/06 05:49:52;;;;;;;;;25.75;23.50;;;;;15.25;62.97;101044.38;5073854;28;46209;-78
2023/06/06 05:52:17;;;;;;;;;28.75;27.00;;;;;15.28;63.46;101043.25;5073446;28;45662;-79
2023/06/06 05:54:43;;;;;;;;;29.50;27.25;;;;;15.29;63.03;101045.78;5074143;28;45703;-77
2023/06/06 05:57:22;;;;;;;;;29.00;26.00;;;;;15.31;62.98;101056.22;5073656;28;46314;-77
2023/06/06 05:59:47;;;;;;;;;26.50;24.00;;;;;15.32;63.15;101047.34;5054686;28;47381;-77
2023/06/06 06:02:14;;;;;;;;;36.25;31.25;;;;;15.28;63.20;101048.53;5073258;28;45773;-77
2023/06/06 06:04:42;;;;;;;;;36.25;32.50;;;;;15.29;63.47;101047.59;5073624;28;45688;-78
2023/06/06 06:07:08;;;;;;;;;36.00;29.25;;;;;15.27;63.21;101049.53;5073195;28;45628;-78
2023/06/06 06:09:34;;;;;;;;;36.00;27.50;;;;;15.27;63.71;101054.81;5072710;28;46146;-77
2023/06/06 06:11:59;;;;;;;;;40.00;27.75;;;;;15.26;63.37;101053.13;5072723;28;45598;-77
2023/06/06 06:14:25;;;;;;;;;37.75;29.75;;;;;15.25;63.59;101062.00;5072619;28;45487;-76
2023/06/06 06:20:14;;;;;;;;;35.50;29.75;;;;;15.18;64.07;101059.03;5075321;28;46276;-77
2023/06/06 06:22:40;;;;;;;;;40.75;34.50;;;;;15.20;63.80;101048.38;5076334;28;45823;-78
2023/06/06 06:25:08;;;;;;;;;41.75;35.25;;;;;15.20;63.74;101051.00;5076412;28;45523;-78
2023/06/06 06:27:35;;;;;;;;;35.50;33.00;;;;;15.21;63.93;101050.88;5075836;28;45774;-77
2023/06/06 06:30:04;;;;;;;;;34.75;31.25;;;;;15.24;63.59;101057.69;5058039;28;47436;-77
2023/06/06 06:32:30;;;;;;;;;42.00;32.50;;;;;15.27;63.66;101053.00;5076139;28;45485;-77
2023/06/06 06:34:55;;;;;;;;;38.00;33.00;;;;;15.32;63.93;101060.53;5076422;28;45539;-76
2023/06/06 06:37:20;;;;;;;;;40.75;34.25;;;;;15.34;63.64;101055.97;5076013;28;45634;-78
2023/06/06 06:39:48;;;;;;;;;35.50;30.00;;;;;15.35;63.59;101052.34;5076070;28;45511;-79
2023/06/06 06:42:14;;;;;;;;;33.50;30.00;;;;;15.36;63.85;101064.59;5075996;28;45862;-78
2023/06/06 06:44:48;;;;;;;;;36.00;33.00;;;;;15.40;63.43;101069.50;5075722;28;45712;-76
2023/06/06 06:50:35;;;;;;;;;38.00;32.00;;;;;15.44;63.67;101062.13;5074263;28;46132;-77
2023/06/06 06:53:03;;;;;;;;;34.25;32.00;;;;;15.45;63.71;101062.00;5075434;28;45494;-76
2023/06/06 06:55:28;;;;;;;;;38.75;33.50;;;;;15.46;63.70;101054.94;5071953;28;45538;-77
2023/06/06 06:57:54;;;;;;;;;38.25;34.00;;;;;15.46;63.58;101068.13;5074120;28;46889;-79
2023/06/06 07:00:23;;;;;;;;;34.25;27.75;;;;;15.46;64.19;101065.50;5075460;28;45922;-79
2023/06/06 07:02:49;;;;;;;;;38.00;34.00;;;;;15.45;63.88;101058.53;5075275;28;45631;-78
2023/06/06 07:05:16;;;;;;;;;36.25;33.25;;;;;15.48;63.85;101061.78;5075692;28;45749;-78
2023/06/06 07:07:50;;;;;;;;;37.25;35.25;;;;;15.49;64.05;101058.13;5075228;28;46380;-78
2023/06/06 07:10:16;;;;;;;;;40.00;30.50;;;;;15.50;63.72;101058.97;5074588;28;45506;-78
2023/06/06 07:12:47;;;;;;;;;38.25;31.75;;;;;15.52;63.44;101063.22;5075210;28;45559;-77
2023/06/06 07:15:12;;;;;;;;;32.50;27.75;;;;;15.57;63.72;101073.38;5075517;28;45645;-77
2023/06/06 07:20:59;;;;;;;;;36.50;33.25;;;;;15.67;63.75;101062.88;5080667;28;45730;-78
2023/06/06 07:23:25;;;;;;;;;36.25;30.00;;;;;15.76;63.75;101064.75;5084914;28;45557;-77
2023/06/06 07:25:51;;;;;;;;;36.50;33.00;;;;;15.80;63.47;101064.34;5085035;28;45699;-76
2023/06/06 07:28:18;;;;;;;;;37.00;33.50;;;;;15.88;63.40;101071.59;5081657;28;46368;-77
2023/06/06 07:30:44;;;;;;;;;39.50;32.25;;;;;15.92;63.27;101059.81;5079724;28;46048;-77
2023/06/06 07:33:10;;;;;;;;;41.25;33.50;;;;;15.93;63.35;101053.53;5077497;28;45529;-77
2023/06/06 07:35:36;;;;;;;;;39.00;35.50;;;;;16.01;63.10;101050.25;5075835;28;45472;-77
2023/06/06 07:38:02;;;;;;;;;35.50;31.25;;;;;16.04;62.81;101055.25;5075183;28;46462;-77
2023/06/06 07:40:28;;;;;;;;;42.25;35.75;;;;;16.13;62.93;101054.47;5075457;28;46082;-79
2023/06/06 07:42:54;;;;;;;;;38.75;34.00;;;;;16.17;62.76;101050.59;5075257;28;45707;-77
2023/06/06 07:45:21;;;;;;;;;35.50;32.50;;;;;16.22;62.66;101059.78;5056896;28;45852;-78
2023/06/06 07:51:08;;;;;;;;;30.75;29.25;;;;;16.33;62.51;101057.03;5074685;28;45734;-78
2023/06/06 07:53:33;;;;;;;;;42.00;33.25;;;;;16.37;62.21;101062.88;5074695;28;45628;-78
2023/06/06 07:55:59;;;;;;;;;43.25;31.75;;;;;16.43;62.33;101050.94;5074825;28;45608;-78
2023/06/06 07:58:27;;;;;;;;;38.00;33.50;;;;;16.49;62.02;101053.88;5074686;28;46505;-77
2023/06/06 08:00:53;;;;;;;;;32.25;27.75;;;;;16.55;62.26;101052.50;5074861;28;46108;-77
2023/06/06 08:03:18;;;;;;;;;40.25;34.25;;;;;16.60;61.99;101060.91;5055889;28;45748;-78
2023/06/06 08:05:43;;;;;;;;;38.25;34.75;;;;;16.66;62.03;101058.53;5074328;28;45754;-78
2023/06/06 08:08:09;;;;;;;;;35.75;32.00;;;;;16.72;61.51;101059.81;5055510;28;48522;-79
2023/06/06 08:10:34;;;;;;;;;38.75;32.25;;;;;16.74;61.41;101049.91;5074498;28;45633;-77
2023/06/06 08:13:00;;;;;;;;;31.75;29.50;;;;;16.81;61.39;101048.38;5074564;28;45542;-77
2023/06/06 08:15:26;;;;;;;;;33.50;29.25;;;;;16.89;61.59;101047.72;5074587;28;45459;-79
2023/06/06 08:21:14;;;;;;;;;38.25;31.50;;;;;17.00;60.68;101043.13;5073374;28;45776;-79
2023/06/06 08:23:39;;;;;;;;;35.00;30.75;;;;;17.10;60.79;101043.94;5055704;28;45773;-80
2023/06/06 08:26:04;;;;;;;;;35.75;24.75;;;;;17.15;60.93;101054.94;5056179;28;45883;-79
2023/06/06 08:28:30;;;;;;;;;40.50;34.00;;;;;17.20;60.56;101047.41;5055777;28;47106;-78
2023/06/06 08:30:56;;;;;;;;;36.75;33.75;;;;;17.27;60.33;101050.34;5074231;28;45760;-78
2023/06/06 08:36:43;;;;;;;;;35.50;32.00;;;;;17.39;60.27;101049.19;5073977;28;45624;-77
2023/06/06 08:39:12;;;;;;;;;35.50;32.75;;;;;17.42;60.37;101046.28;5073156;28;46453;-78
2023/06/06 08:41:48;;;;;;;;;37.50;32.00;;;;;17.49;59.95;101049.19;5074198;28;47118;-77
2023/06/06 08:44:13;;;;;;;;;34.75;31.50;;;;;17.54;59.38;101047.75;5074070;28;45931;-77
2023/06/06 08:46:40;;;;;;;;;43.75;35.00;;;;;17.61;59.92;101050.72;5074286;28;45612;-77
2023/06/06 08:49:08;;;;;;;;;38.00;32.00;;;;;17.66;59.65;101051.09;5074050;28;46448;-78
2023/06/06 08:51:34;;;;;;;;;37.25;34.00;;;;;17.72;58.92;101062.94;5073833;28;46113;-77
2023/06/06 08:54:00;;;;;;;;;46.25;35.50;;;;;17.76;59.11;101049.25;5055705;28;46030;-78
2023/06/06 08:56:26;;;;;;;;;35.75;31.00;;;;;17.80;59.16;101045.38;5074317;28;45597;-77
2023/06/06 08:58:52;;;;;;;;;40.75;34.25;;;;;17.89;58.69;101047.13;5073648;28;45493;-78
2023/06/06 09:01:19;;;;;;;;;41.50;34.50;;;;;17.96;58.62;101050.06;5073649;28;45577;-77
2023/06/06 09:07:12;;;;;;;;;39.75;34.75;;;;;18.13;58.67;101054.59;5075327;28;45496;-78
2023/06/06 09:09:40;;;;;;;;;36.25;31.50;;;;;18.18;58.64;101057.63;5057748;28;47629;-78
2023/06/06 09:12:07;;;;;;;;;32.25;29.25;;;;;18.24;58.58;101054.41;5074227;28;46079;-78
2023/06/06 09:14:32;;;;;;;;;36.50;32.25;;;;;18.31;58.36;101050.16;5055154;28;45916;-78
2023/06/06 09:16:58;;;;;;;;;34.25;31.50;;;;;18.38;58.02;101051.22;5074237;28;45689;-78
2023/06/06 09:19:28;;;;;;;;;37.75;34.00;;;;;18.45;58.05;101047.00;5054675;28;47116;-78
2023/06/06 09:21:58;;;;;;;;;38.50;30.25;;;;;18.55;58.08;101046.13;5072999;28;46220;-78
2023/06/06 09:24:23;;;;;;;;;32.25;30.75;;;;;18.59;57.88;101052.81;5075972;28;45708;-78
2023/06/06 09:26:48;;;;;;;;;35.50;32.50;;;;;18.67;57.57;101047.59;5076881;28;45763;-77
2023/06/06 09:29:14;;;;;;;;;38.00;33.00;;;;;18.72;57.50;101040.03;5074828;28;45979;-79
2023/06/06 09:31:41;;;;;;;;;37.00;32.00;;;;;18.77;56.72;101041.25;5073073;28;45614;-79
2023/06/06 09:37:28;;;;;;;;;31.75;28.75;;;;;18.89;57.14;101036.53;5076327;28;45471;-78
2023/06/06 09:40:15;;;;;;;;;37.00;33.00;;;;;18.97;56.72;101038.41;5061733;28;47719;-78
2023/06/06 09:42:45;;;;;;;;;34.75;30.50;;;;;19.01;56.22;101040.59;5084093;28;46249;-77
2023/06/06 09:45:12;;;;;;;;;35.25;30.25;;;;;19.09;56.32;101045.16;5083450;28;45554;-78
2023/06/06 09:47:44;;;;;;;;;31.00;29.00;;;;;19.13;55.79;101036.72;5083627;28;45507;-78
2023/06/06 09:50:11;;;;;;;;;32.00;28.00;;;;;19.18;55.78;101031.78;5062845;28;46398;-78
2023/06/06 09:52:37;;;;;;;;;32.50;29.50;;;;;19.24;55.42;101038.31;5078191;28;45944;-78
2023/06/06 09:55:09;;;;;;;;;37.00;30.25;;;;;19.31;55.02;101028.75;5077085;28;45482;-77
2023/06/06 09:57:36;;;;;;;;;33.25;30.75;;;;;19.36;55.07;101030.94;5059016;28;45558;-78
2023/06/06 10:00:09;;;;;;;;;32.50;26.25;;;;;19.43;54.51;101027.50;5076731;28;45662;-78
2023/06/06 10:02:40;;;;;;;;;34.75;31.00;;;;;19.47;54.53;101023.56;5076280;28;46073;-78
2023/06/06 10:05:07;;;;;;;;;36.50;31.00;;;;;19.54;55.01;101015.81;5076594;28;45602;-79
2023/06/06 10:07:32;;;;;;;;;34.00;28.75;;;;;19.58;54.84;101018.00;5077635;28;45767;-79
2023/06/06 10:09:59;;;;;;;;;29.25;27.25;;;;;19.65;54.87;101024.34;5076900;28;45660;-79
2023/06/06 10:12:28;;;;;;;;;32.75;29.75;;;;;19.68;54.59;101034.66;5074945;28;46262;-79
2023/06/06 10:14:57;;;;;;;;;34.50;31.00;;;;;19.75;54.35;101018.94;5079759;28;45925;-81
2023/06/06 10:17:25;;;;;;;;;33.50;29.50;;;;;19.79;54.26;101020.28;5077113;28;46134;-80
2023/06/06 10:19:57;;;;;;;;;31.50;29.50;;;;;19.86;54.21;101013.34;5058320;28;46386;-80
2023/06/06 10:22:25;;;;;;;;;36.00;31.75;;;;;19.93;54.03;101014.34;5077026;28;46170;-80
2023/06/06 10:24:50;;;;;;;;;31.25;28.25;;;;;20.00;54.26;101012.72;5058282;28;45740;-79
2023/06/06 10:27:23;;;;;;;;;32.75;29.75;;;;;20.06;53.89;101009.41;5076586;28;45797;-80
2023/06/06 10:30:04;;;;;;;;;31.25;29.00;;;;;20.09;53.81;101001.09;5083705;28;45685;-79
2023/06/06 10:32:54;;;;;;;;;30.50;27.75;;;;;20.21;53.75;101009.63;5076050;28;46063;-80
2023/06/06 10:35:20;;;;;;;;;32.00;28.50;;;;;20.25;53.39;101007.47;5058538;28;45606;-80
2023/06/06 10:38:03;;;;;;;;;32.50;29.75;;;;;20.35;53.49;101003.72;5076240;28;45725;-82
2023/06/06 10:40:49;;;;;;;;;34.25;30.75;;;;;20.39;52.58;101007.72;5057829;28;47266;-82
2023/06/06 10:43:15;;;;;;;;;26.50;25.00;;;;;20.44;52.97;100999.25;5057162;28;46604;-81
2023/06/06 10:45:45;;;;;;;;;34.75;30.00;;;;;20.49;52.97;100995.09;5058109;28;45551;-80
2023/06/06 10:48:13;;;;;;;;;29.75;27.75;;;;;20.57;52.99;101006.78;5075839;28;45771;-78
2023/06/06 10:50:52;;;;;;;;;28.75;24.50;;;;;20.64;52.70;100997.13;5075749;28;46511;-81
2023/06/06 10:53:17;;;;;;;;;30.50;27.25;;;;;20.73;52.34;100991.63;5075213;28;45997;-80
2023/06/06 10:55:44;;;;;;;;;29.50;28.00;;;;;20.80;52.08;100997.13;5057168;28;45577;-81
2023/06/06 10:58:16;;;;;;;;;31.75;29.50;;;;;20.84;51.73;100999.28;5057214;28;45926;-79
2023/06/06 11:00:46;;;;;;;;;26.00;24.25;;;;;20.87;52.29;100979.50;5074898;28;46580;-79
2023/06/06 11:03:15;;;;;;;;;28.75;23.25;;;;;20.95;51.78;100980.31;5075279;28;45819;-79
2023/06/06 11:05:59;;;;;;;;;31.25;26.00;;;;;21.01;51.26;100984.13;5075581;28;45538;-81
2023/06/06 11:08:57;;;;;;;;;30.75;27.00;;;;;21.10;51.61;100977.00;5075846;28;45719;-80
2023/06/06 11:11:30;;;;;;;;;25.00;23.00;;;;;21.16;50.73;100976.34;5075517;28;45591;-80
2023/06/06 11:13:59;;;;;;;;;28.00;25.00;;;;;21.24;50.71;100971.84;5075519;28;45955;-81
2023/06/06 11:16:40;;;;;;;;;25.25;24.25;;;;;21.31;50.74;100969.34;5056816;28;45668;-80
2023/06/06 11:19:07;;;;;;;;;25.25;21.75;;;;;21.37;50.35;100966.00;5056900;28;45688;-81
2023/06/06 11:21:58;;;;;;;;;16.50;16.00;;;;;21.48;50.05;100978.13;5075213;28;45455;-80
2023/06/06 11:24:31;;;;;;;;;28.25;25.25;;;;;21.55;50.10;100971.91;5075520;28;46102;-81
2023/06/06 11:26:57;;;;;;;;;27.50;24.25;;;;;21.61;50.54;100957.06;5075504;28;45741;-81
2023/06/06 11:29:25;;;;;;;;;27.75;26.00;;;;;21.69;50.15;100962.41;5075582;28;45699;-81
2023/06/06 11:31:51;;;;;;;;;30.00;29.00;;;;;21.78;49.69;100956.84;5056423;28;47107;-81
2023/06/06 11:34:16;;;;;;;;;25.25;20.75;;;;;21.84;49.27;100955.31;5075112;28;45607;-81
2023/06/06 11:36:44;;;;;;;;;21.50;20.75;;;;;21.92;48.64;100957.09;5075658;28;45575;-80
2023/06/06 11:39:12;;;;;;;;;19.75;19.00;;;;;22.01;48.58;100964.13;5075292;28;45600;-80
2023/06/06 11:41:44;;;;;;;;;26.00;22.25;;;;;22.08;48.02;100960.56;5075258;28;45783;-80
2023/06/06 11:44:10;;;;;;;;;20.25;17.75;;;;;22.15;48.05;100955.34;5075009;28;46092;-80
2023/06/06 11:46:50;;;;;;;;;22.50;21.00;;;;;22.23;47.66;100959.84;5075071;28;45629;-79
2023/06/06 11:49:16;;;;;;;;;17.50;16.00;;;;;22.29;47.95;100949.28;5074960;28;45677;-79
2023/06/06 11:52:03;;;;;;;;;22.50;21.00;;;;;22.36;47.62;100944.88;5074739;28;46558;-79
2023/06/06 11:54:29;;;;;;;;;20.75;18.25;;;;;22.43;47.09;100939.66;5074885;28;45527;-79
2023/06/06 11:57:02;;;;;;;;;24.50;19.25;;;;;22.52;47.43;100949.28;5075116;28;45668;-79
2023/06/06 11:59:28;;;;;;;;;21.75;20.00;;;;;22.58;47.10;100938.72;5076192;28;45675;-78
2023/06/06 12:01:56;;;;;;;;;17.25;17.25;;;;;22.63;46.50;100942.69;5083877;28;45570;-78
2023/06/06 12:04:23;;;;;;;;;19.50;17.00;;;;;22.68;46.59;100941.13;5089982;28;45628;-78
2023/06/06 12:06:51;;;;;;;;;18.25;16.25;;;;;22.78;46.25;100943.63;5088616;28;45481;-79
2023/06/06 12:09:18;;;;;;;;;21.75;19.25;;;;;22.80;46.69;100937.06;5084193;28;45484;-79
2023/06/06 12:11:53;;;;;;;;;21.00;20.00;;;;;22.89;46.38;100946.66;5077034;28;46800;-80
2023/06/06 12:14:22;;;;;;;;;18.75;17.50;;;;;22.97;46.49;100943.94;5074418;28;46048;-81